sensor_id;sensor_type;location;lat;lon;timestamp;P1;durP1;ratioP1;P2;durP2;ratioP2
65545;SDS011;52177;55.968;37.498;2023-11-21T00:00:27;5.95;;;4.30;;
65545;SDS011;52177;55.968;37.498;2023-11-21T00:00:58;5.30;;;4.00;;
65545;SDS011;52177;55.968;37.498;2023-11-21T00:01:28;5.13;;;3.65;;
65545;SDS011;52177;55.968;37.498;2023-11-21T00:01:59;6.75;;;4.65;;
65545;SDS011;52177;55.968;37.498;2023-11-21T00:02:29;5.38;;;3.60;;
65545;SDS011;52177;55.968;37.498;2023-11-21T00:03:00;4.28;;;3.88;;
65545;SDS011;52177;55.968;37.498;2023-11-21T00:03:31;5.47;;;4.20;;
65545;SDS011;52177;55.968;37.498;2023-11-21T00:04:01;6.18;;;3.80;;
65545;SDS011;52177;55.968;37.498;2023-11-21T00:04:32;5.78;;;4.13;;
65545;SDS011;52177;55.968;37.498;2023-11-21T00:05:02;6.53;;;4.20;;
65545;SDS011;52177;55.968;37.498;2023-11-21T00:05:33;7.38;;;3.90;;
65545;SDS011;52177;55.968;37.498;2023-11-21T00:06:05;6.28;;;4.15;;
65545;SDS011;52177;55.968;37.498;2023-11-21T00:06:39;6.35;;;4.13;;
65545;SDS011;52177;55.968;37.498;2023-11-21T00:07:11;6.70;;;4.15;;
65545;SDS011;52177;55.968;37.498;2023-11-21T00:07:41;6.43;;;4.65;;
65545;SDS011;52177;55.968;37.498;2023-11-21T00:08:12;7.32;;;4.15;;
65545;SDS011;52177;55.968;37.498;2023-11-21T00:08:43;6.75;;;4.53;;
65545;SDS011;52177;55.968;37.498;2023-11-21T00:09:13;5.65;;;4.18;;
65545;SDS011;52177;55.968;37.498;2023-11-21T00:09:48;5.80;;;4.05;;
65545;SDS011;52177;55.968;37.498;2023-11-21T00:10:19;4.82;;;3.65;;
65545;SDS011;52177;55.968;37.498;2023-11-21T00:10:49;3.88;;;3.13;;
65545;SDS011;52177;55.968;37.498;2023-11-21T00:11:21;5.05;;;3.90;;
65545;SDS011;52177;55.968;37.498;2023-11-21T00:11:51;5.43;;;4.15;;
65545;SDS011;52177;55.968;37.498;2023-11-21T00:12:21;7.20;;;4.60;;
65545;SDS011;52177;55.968;37.498;2023-11-21T00:12:52;4.65;;;3.92;;
65545;SDS011;52177;55.968;37.498;2023-11-21T00:13:25;5.82;;;3.85;;
65545;SDS011;52177;55.968;37.498;2023-11-21T00:13:55;5.70;;;3.50;;
65545;SDS011;52177;55.968;37.498;2023-11-21T00:14:25;5.57;;;4.30;;
65545;SDS011;52177;55.968;37.498;2023-11-21T00:14:56;6.05;;;4.20;;
65545;SDS011;52177;55.968;37.498;2023-11-21T00:15:27;5.78;;;3.85;;
65545;SDS011;52177;55.968;37.498;2023-11-21T00:15:58;7.70;;;3.90;;
65545;SDS011;52177;55.968;37.498;2023-11-21T00:16:29;6.22;;;4.03;;
65545;SDS011;52177;55.968;37.498;2023-11-21T00:16:59;4.35;;;3.85;;
65545;SDS011;52177;55.968;37.498;2023-11-21T00:17:29;6.60;;;3.78;;
65545;SDS011;52177;55.968;37.498;2023-11-21T00:18:00;6.78;;;3.83;;
65545;SDS011;52177;55.968;37.498;2023-11-21T00:18:30;4.32;;;3.88;;
65545;SDS011;52177;55.968;37.498;2023-11-21T00:19:01;4.07;;;3.55;;
65545;SDS011;52177;55.968;37.498;2023-11-21T00:19:31;4.97;;;3.65;;
65545;SDS011;52177;55.968;37.498;2023-11-21T00:20:04;5.28;;;4.05;;
65545;SDS011;52177;55.968;37.498;2023-11-21T00:20:36;4.95;;;4.03;;
65545;SDS011;52177;55.968;37.498;2023-11-21T00:21:07;6.90;;;3.70;;
65545;SDS011;52177;55.968;37.498;2023-11-21T00:21:37;6.20;;;4.00;;
65545;SDS011;52177;55.968;37.498;2023-11-21T00:22:08;7.47;;;4.07;;
65545;SDS011;52177;55.968;37.498;2023-11-21T00:22:39;5.45;;;4.03;;
65545;SDS011;52177;55.968;37.498;2023-11-21T00:23:10;8.10;;;4.30;;
65545;SDS011;52177;55.968;37.498;2023-11-21T00:23:40;6.22;;;3.95;;
65545;SDS011;52177;55.968;37.498;2023-11-21T00:24:11;8.93;;;3.42;;
65545;SDS011;52177;55.968;37.498;2023-11-21T00:24:43;9.80;;;4.07;;
65545;SDS011;52177;55.968;37.498;2023-11-21T00:25:14;6.18;;;3.80;;
65545;SDS011;52177;55.968;37.498;2023-11-21T00:25:45;4.53;;;3.72;;
65545;SDS011;52177;55.968;37.498;2023-11-21T00:26:16;5.72;;;3.67;;
65545;SDS011;52177;55.968;37.498;2023-11-21T00:26:46;5.57;;;4.03;;
65545;SDS011;52177;55.968;37.498;2023-11-21T00:27:18;4.53;;;3.67;;
65545;SDS011;52177;55.968;37.498;2023-11-21T00:27:48;6.47;;;3.95;;
65545;SDS011;52177;55.968;37.498;2023-11-21T00:28:19;4.32;;;3.50;;
65545;SDS011;52177;55.968;37.498;2023-11-21T00:28:50;4.93;;;3.95;;
65545;SDS011;52177;55.968;37.498;2023-11-21T00:29:20;4.68;;;3.67;;
65545;SDS011;52177;55.968;37.498;2023-11-21T00:29:51;6.80;;;4.03;;
65545;SDS011;52177;55.968;37.498;2023-11-21T00:30:22;5.38;;;3.90;;
65545;SDS011;52177;55.968;37.498;2023-11-21T00:30:52;4.40;;;3.50;;
65545;SDS011;52177;55.968;37.498;2023-11-21T00:31:23;5.22;;;3.47;;
65545;SDS011;52177;55.968;37.498;2023-11-21T00:31:54;13.38;;;4.15;;
65545;SDS011;52177;55.968;37.498;2023-11-21T00:32:25;5.35;;;3.85;;
65545;SDS011;52177;55.968;37.498;2023-11-21T00:32:55;6.50;;;4.10;;
65545;SDS011;52177;55.968;37.498;2023-11-21T00:33:25;4.18;;;3.70;;
65545;SDS011;52177;55.968;37.498;2023-11-21T00:33:57;4.78;;;3.88;;
65545;SDS011;52177;55.968;37.498;2023-11-21T00:34:27;6.22;;;3.72;;
65545;SDS011;52177;55.968;37.498;2023-11-21T00:34:58;5.50;;;3.50;;
65545;SDS011;52177;55.968;37.498;2023-11-21T00:35:29;5.68;;;4.05;;
65545;SDS011;52177;55.968;37.498;2023-11-21T00:35:59;7.57;;;3.55;;
65545;SDS011;52177;55.968;37.498;2023-11-21T00:36:31;6.10;;;3.70;;
65545;SDS011;52177;55.968;37.498;2023-11-21T00:37:02;5.38;;;3.78;;
65545;SDS011;52177;55.968;37.498;2023-11-21T00:37:32;9.68;;;3.72;;
65545;SDS011;52177;55.968;37.498;2023-11-21T00:38:03;3.78;;;3.22;;
65545;SDS011;52177;55.968;37.498;2023-11-21T00:38:33;5.32;;;3.58;;
65545;SDS011;52177;55.968;37.498;2023-11-21T00:39:04;6.57;;;3.95;;
65545;SDS011;52177;55.968;37.498;2023-11-21T00:39:35;5.55;;;4.20;;
65545;SDS011;52177;55.968;37.498;2023-11-21T00:40:06;5.38;;;3.70;;
65545;SDS011;52177;55.968;37.498;2023-11-21T00:40:37;4.50;;;3.95;;
65545;SDS011;52177;55.968;37.498;2023-11-21T00:41:08;5.07;;;4.10;;
65545;SDS011;52177;55.968;37.498;2023-11-21T00:41:38;6.18;;;3.65;;
65545;SDS011;52177;55.968;37.498;2023-11-21T00:42:09;5.93;;;3.80;;
65545;SDS011;52177;55.968;37.498;2023-11-21T00:42:40;4.32;;;3.70;;
65545;SDS011;52177;55.968;37.498;2023-11-21T00:43:11;4.65;;;3.80;;
65545;SDS011;52177;55.968;37.498;2023-11-21T00:43:42;9.75;;;4.22;;
65545;SDS011;52177;55.968;37.498;2023-11-21T00:44:12;5.00;;;4.28;;
65545;SDS011;52177;55.968;37.498;2023-11-21T00:44:43;5.97;;;3.70;;
65545;SDS011;52177;55.968;37.498;2023-11-21T00:45:13;7.22;;;4.28;;
65545;SDS011;52177;55.968;37.498;2023-11-21T00:45:44;5.78;;;4.18;;
65545;SDS011;52177;55.968;37.498;2023-11-21T00:46:15;5.60;;;4.28;;
65545;SDS011;52177;55.968;37.498;2023-11-21T00:46:45;5.07;;;3.78;;
65545;SDS011;52177;55.968;37.498;2023-11-21T00:47:16;8.50;;;4.20;;
65545;SDS011;52177;55.968;37.498;2023-11-21T00:47:46;8.60;;;4.25;;
65545;SDS011;52177;55.968;37.498;2023-11-21T00:48:17;4.80;;;3.85;;
65545;SDS011;52177;55.968;37.498;2023-11-21T00:48:50;6.95;;;3.80;;
65545;SDS011;52177;55.968;37.498;2023-11-21T00:49:21;6.80;;;3.45;;
65545;SDS011;52177;55.968;37.498;2023-11-21T00:49:51;7.00;;;3.60;;
65545;SDS011;52177;55.968;37.498;2023-11-21T00:50:22;4.35;;;3.47;;
65545;SDS011;52177;55.968;37.498;2023-11-21T00:50:54;6.43;;;4.00;;
65545;SDS011;52177;55.968;37.498;2023-11-21T00:51:26;4.80;;;3.35;;
65545;SDS011;52177;55.968;37.498;2023-11-21T00:51:56;4.20;;;3.50;;
65545;SDS011;52177;55.968;37.498;2023-11-21T00:52:28;4.53;;;3.53;;
65545;SDS011;52177;55.968;37.498;2023-11-21T00:52:58;4.25;;;3.67;;
65545;SDS011;52177;55.968;37.498;2023-11-21T00:53:28;5.78;;;3.78;;
65545;SDS011;52177;55.968;37.498;2023-11-21T00:53:59;4.97;;;4.13;;
65545;SDS011;52177;55.968;37.498;2023-11-21T00:54:30;5.55;;;3.70;;
65545;SDS011;52177;55.968;37.498;2023-11-21T00:55:00;6.68;;;3.38;;
65545;SDS011;52177;55.968;37.498;2023-11-21T00:55:33;4.95;;;3.50;;
65545;SDS011;52177;55.968;37.498;2023-11-21T00:56:04;5.20;;;3.53;;
65545;SDS011;52177;55.968;37.498;2023-11-21T00:56:36;10.40;;;3.67;;
65545;SDS011;52177;55.968;37.498;2023-11-21T00:57:07;5.78;;;3.47;;
65545;SDS011;52177;55.968;37.498;2023-11-21T00:57:38;5.57;;;3.33;;
65545;SDS011;52177;55.968;37.498;2023-11-21T00:58:09;4.47;;;3.38;;
65545;SDS011;52177;55.968;37.498;2023-11-21T00:58:40;4.25;;;3.58;;
65545;SDS011;52177;55.968;37.498;2023-11-21T00:59:16;5.57;;;4.03;;
65545;SDS011;52177;55.968;37.498;2023-11-21T00:59:47;5.43;;;3.67;;
65545;SDS011;52177;55.968;37.498;2023-11-21T01:00:17;4.32;;;3.47;;
65545;SDS011;52177;55.968;37.498;2023-11-21T01:00:48;4.68;;;3.42;;
65545;SDS011;52177;55.968;37.498;2023-11-21T01:01:18;5.80;;;3.33;;
65545;SDS011;52177;55.968;37.498;2023-11-21T01:01:49;4.97;;;3.38;;
65545;SDS011;52177;55.968;37.498;2023-11-21T01:02:19;4.22;;;3.63;;
65545;SDS011;52177;55.968;37.498;2023-11-21T01:02:50;5.32;;;3.50;;
65545;SDS011;52177;55.968;37.498;2023-11-21T01:03:21;5.18;;;3.45;;
65545;SDS011;52177;55.968;37.498;2023-11-21T01:03:51;5.95;;;3.40;;
65545;SDS011;52177;55.968;37.498;2023-11-21T01:04:22;4.63;;;3.30;;
65545;SDS011;52177;55.968;37.498;2023-11-21T01:04:52;7.25;;;3.92;;
65545;SDS011;52177;55.968;37.498;2023-11-21T01:05:23;4.95;;;3.58;;
65545;SDS011;52177;55.968;37.498;2023-11-21T01:05:53;4.95;;;3.20;;
65545;SDS011;52177;55.968;37.498;2023-11-21T01:06:24;4.82;;;3.30;;
65545;SDS011;52177;55.968;37.498;2023-11-21T01:06:55;4.25;;;3.53;;
65545;SDS011;52177;55.968;37.498;2023-11-21T01:07:25;5.32;;;3.08;;
65545;SDS011;52177;55.968;37.498;2023-11-21T01:07:57;4.00;;;3.58;;
65545;SDS011;52177;55.968;37.498;2023-11-21T01:08:27;5.70;;;3.88;;
65545;SDS011;52177;55.968;37.498;2023-11-21T01:08:58;9.32;;;3.58;;
65545;SDS011;52177;55.968;37.498;2023-11-21T01:09:29;12.40;;;3.65;;
65545;SDS011;52177;55.968;37.498;2023-11-21T01:10:00;3.90;;;3.20;;
65545;SDS011;52177;55.968;37.498;2023-11-21T01:10:30;4.07;;;3.67;;
65545;SDS011;52177;55.968;37.498;2023-11-21T01:11:01;5.03;;;3.90;;
65545;SDS011;52177;55.968;37.498;2023-11-21T01:11:32;4.38;;;3.40;;
65545;SDS011;52177;55.968;37.498;2023-11-21T01:12:06;4.00;;;3.60;;
65545;SDS011;52177;55.968;37.498;2023-11-21T01:12:37;6.15;;;3.38;;
65545;SDS011;52177;55.968;37.498;2023-11-21T01:13:08;5.10;;;3.75;;
65545;SDS011;52177;55.968;37.498;2023-11-21T01:13:39;3.95;;;3.20;;
65545;SDS011;52177;55.968;37.498;2023-11-21T01:14:10;4.53;;;3.45;;
65545;SDS011;52177;55.968;37.498;2023-11-21T01:14:41;4.72;;;3.53;;
65545;SDS011;52177;55.968;37.498;2023-11-21T01:15:11;4.85;;;3.70;;
65545;SDS011;52177;55.968;37.498;2023-11-21T01:15:42;5.43;;;3.38;;
65545;SDS011;52177;55.968;37.498;2023-11-21T01:16:12;5.70;;;3.28;;
65545;SDS011;52177;55.968;37.498;2023-11-21T01:16:43;4.63;;;3.28;;
65545;SDS011;52177;55.968;37.498;2023-11-21T01:17:13;6.25;;;3.60;;
65545;SDS011;52177;55.968;37.498;2023-11-21T01:17:44;4.22;;;3.45;;
65545;SDS011;52177;55.968;37.498;2023-11-21T01:18:14;5.90;;;3.65;;
65545;SDS011;52177;55.968;37.498;2023-11-21T01:18:45;5.25;;;3.90;;
65545;SDS011;52177;55.968;37.498;2023-11-21T01:19:15;6.22;;;4.20;;
65545;SDS011;52177;55.968;37.498;2023-11-21T01:19:45;5.18;;;3.58;;
65545;SDS011;52177;55.968;37.498;2023-11-21T01:20:16;9.75;;;6.55;;
65545;SDS011;52177;55.968;37.498;2023-11-21T01:20:47;17.02;;;10.63;;
65545;SDS011;52177;55.968;37.498;2023-11-21T01:21:17;14.15;;;8.27;;
65545;SDS011;52177;55.968;37.498;2023-11-21T01:21:48;7.72;;;5.43;;
65545;SDS011;52177;55.968;37.498;2023-11-21T01:22:18;13.68;;;6.82;;
65545;SDS011;52177;55.968;37.498;2023-11-21T01:22:55;10.77;;;7.05;;
65545;SDS011;52177;55.968;37.498;2023-11-21T01:23:26;10.77;;;5.82;;
65545;SDS011;52177;55.968;37.498;2023-11-21T01:23:57;9.35;;;5.32;;
65545;SDS011;52177;55.968;37.498;2023-11-21T01:24:27;10.00;;;6.60;;
65545;SDS011;52177;55.968;37.498;2023-11-21T01:24:57;14.43;;;8.68;;
65545;SDS011;52177;55.968;37.498;2023-11-21T01:25:28;19.25;;;10.57;;
65545;SDS011;52177;55.968;37.498;2023-11-21T01:25:58;9.88;;;6.05;;
65545;SDS011;52177;55.968;37.498;2023-11-21T01:26:29;8.75;;;6.05;;
65545;SDS011;52177;55.968;37.498;2023-11-21T01:26:59;8.98;;;4.80;;
65545;SDS011;52177;55.968;37.498;2023-11-21T01:27:30;8.73;;;5.63;;
65545;SDS011;52177;55.968;37.498;2023-11-21T01:28:00;11.02;;;6.53;;
65545;SDS011;52177;55.968;37.498;2023-11-21T01:28:31;9.88;;;6.63;;
65545;SDS011;52177;55.968;37.498;2023-11-21T01:29:02;8.80;;;5.28;;
65545;SDS011;52177;55.968;37.498;2023-11-21T01:29:32;7.63;;;4.88;;
65545;SDS011;52177;55.968;37.498;2023-11-21T01:30:04;7.63;;;5.93;;
65545;SDS011;52177;55.968;37.498;2023-11-21T01:30:37;11.18;;;5.90;;
65545;SDS011;52177;55.968;37.498;2023-11-21T01:31:07;7.53;;;5.50;;
65545;SDS011;52177;55.968;37.498;2023-11-21T01:31:38;9.93;;;6.25;;
65545;SDS011;52177;55.968;37.498;2023-11-21T01:32:08;7.68;;;5.68;;
65545;SDS011;52177;55.968;37.498;2023-11-21T01:32:39;9.45;;;5.93;;
65545;SDS011;52177;55.968;37.498;2023-11-21T01:33:10;8.85;;;6.13;;
65545;SDS011;52177;55.968;37.498;2023-11-21T01:33:41;7.68;;;5.57;;
65545;SDS011;52177;55.968;37.498;2023-11-21T01:34:11;8.10;;;6.13;;
65545;SDS011;52177;55.968;37.498;2023-11-21T01:34:42;8.70;;;5.60;;
65545;SDS011;52177;55.968;37.498;2023-11-21T01:35:12;7.35;;;4.78;;
65545;SDS011;52177;55.968;37.498;2023-11-21T01:35:43;5.60;;;4.25;;
65545;SDS011;52177;55.968;37.498;2023-11-21T01:36:13;4.15;;;3.58;;
65545;SDS011;52177;55.968;37.498;2023-11-21T01:36:45;4.65;;;3.42;;
65545;SDS011;52177;55.968;37.498;2023-11-21T01:37:16;3.75;;;3.35;;
65545;SDS011;52177;55.968;37.498;2023-11-21T01:37:47;6.32;;;3.95;;
65545;SDS011;52177;55.968;37.498;2023-11-21T01:38:18;6.72;;;4.63;;
65545;SDS011;52177;55.968;37.498;2023-11-21T01:38:48;6.07;;;4.28;;
65545;SDS011;52177;55.968;37.498;2023-11-21T01:39:19;6.18;;;4.40;;
65545;SDS011;52177;55.968;37.498;2023-11-21T01:39:54;4.20;;;3.65;;
65545;SDS011;52177;55.968;37.498;2023-11-21T01:40:29;5.68;;;4.15;;
65545;SDS011;52177;55.968;37.498;2023-11-21T01:41:00;5.40;;;3.60;;
65545;SDS011;52177;55.968;37.498;2023-11-21T01:41:30;4.95;;;3.25;;
65545;SDS011;52177;55.968;37.498;2023-11-21T01:42:01;5.57;;;3.33;;
65545;SDS011;52177;55.968;37.498;2023-11-21T01:42:31;4.53;;;3.20;;
65545;SDS011;52177;55.968;37.498;2023-11-21T01:43:02;5.50;;;3.85;;
65545;SDS011;52177;55.968;37.498;2023-11-21T01:43:33;4.47;;;3.30;;
65545;SDS011;52177;55.968;37.498;2023-11-21T01:44:04;5.78;;;3.70;;
65545;SDS011;52177;55.968;37.498;2023-11-21T01:44:37;3.60;;;3.20;;
65545;SDS011;52177;55.968;37.498;2023-11-21T01:45:08;4.15;;;3.55;;
65545;SDS011;52177;55.968;37.498;2023-11-21T01:45:39;5.47;;;3.40;;
65545;SDS011;52177;55.968;37.498;2023-11-21T01:46:10;3.85;;;3.10;;
65545;SDS011;52177;55.968;37.498;2023-11-21T01:46:40;4.38;;;3.20;;
65545;SDS011;52177;55.968;37.498;2023-11-21T01:47:11;5.00;;;2.97;;
65545;SDS011;52177;55.968;37.498;2023-11-21T01:47:43;5.90;;;3.50;;
65545;SDS011;52177;55.968;37.498;2023-11-21T01:48:15;6.85;;;3.55;;
65545;SDS011;52177;55.968;37.498;2023-11-21T01:48:47;5.85;;;3.33;;
65545;SDS011;52177;55.968;37.498;2023-11-21T01:49:18;5.00;;;3.30;;
65545;SDS011;52177;55.968;37.498;2023-11-21T01:49:50;5.57;;;3.05;;
65545;SDS011;52177;55.968;37.498;2023-11-21T01:50:21;5.07;;;3.60;;
65545;SDS011;52177;55.968;37.498;2023-11-21T01:50:52;3.40;;;2.95;;
65545;SDS011;52177;55.968;37.498;2023-11-21T01:51:23;4.97;;;3.88;;
65545;SDS011;52177;55.968;37.498;2023-11-21T01:51:53;3.42;;;3.13;;
65545;SDS011;52177;55.968;37.498;2023-11-21T01:52:24;4.53;;;3.17;;
65545;SDS011;52177;55.968;37.498;2023-11-21T01:52:54;4.13;;;3.10;;
65545;SDS011;52177;55.968;37.498;2023-11-21T01:53:25;4.82;;;3.17;;
65545;SDS011;52177;55.968;37.498;2023-11-21T01:53:57;5.07;;;2.80;;
65545;SDS011;52177;55.968;37.498;2023-11-21T01:54:27;3.25;;;2.90;;
65545;SDS011;52177;55.968;37.498;2023-11-21T01:55:02;5.32;;;3.00;;
65545;SDS011;52177;55.968;37.498;2023-11-21T01:55:33;4.90;;;3.45;;
65545;SDS011;52177;55.968;37.498;2023-11-21T01:56:04;5.38;;;3.30;;
65545;SDS011;52177;55.968;37.498;2023-11-21T01:56:37;4.03;;;2.80;;
65545;SDS011;52177;55.968;37.498;2023-11-21T01:57:08;4.25;;;3.00;;
65545;SDS011;52177;55.968;37.498;2023-11-21T01:57:38;3.63;;;2.65;;
65545;SDS011;52177;55.968;37.498;2023-11-21T01:58:09;3.88;;;3.38;;
65545;SDS011;52177;55.968;37.498;2023-11-21T01:58:41;3.47;;;3.10;;
65545;SDS011;52177;55.968;37.498;2023-11-21T01:59:20;4.78;;;3.03;;
65545;SDS011;52177;55.968;37.498;2023-11-21T01:59:51;3.58;;;2.70;;
65545;SDS011;52177;55.968;37.498;2023-11-21T02:00:24;5.32;;;3.00;;
65545;SDS011;52177;55.968;37.498;2023-11-21T02:00:58;6.50;;;3.00;;
65545;SDS011;52177;55.968;37.498;2023-11-21T02:01:28;5.40;;;2.88;;
65545;SDS011;52177;55.968;37.498;2023-11-21T02:01:59;3.35;;;2.80;;
65545;SDS011;52177;55.968;37.498;2023-11-21T02:02:29;5.13;;;3.20;;
65545;SDS011;52177;55.968;37.498;2023-11-21T02:03:00;10.23;;;2.92;;
65545;SDS011;52177;55.968;37.498;2023-11-21T02:03:31;3.38;;;2.80;;
65545;SDS011;52177;55.968;37.498;2023-11-21T02:04:01;3.40;;;3.10;;
65545;SDS011;52177;55.968;37.498;2023-11-21T02:04:33;4.07;;;3.08;;
65545;SDS011;52177;55.968;37.498;2023-11-21T02:05:04;3.10;;;2.80;;
65545;SDS011;52177;55.968;37.498;2023-11-21T02:05:34;7.35;;;2.90;;
65545;SDS011;52177;55.968;37.498;2023-11-21T02:06:06;4.40;;;2.83;;
65545;SDS011;52177;55.968;37.498;2023-11-21T02:06:36;4.72;;;3.00;;
65545;SDS011;52177;55.968;37.498;2023-11-21T02:07:07;3.80;;;2.58;;
65545;SDS011;52177;55.968;37.498;2023-11-21T02:07:38;3.40;;;2.92;;
65545;SDS011;52177;55.968;37.498;2023-11-21T02:08:09;4.25;;;2.83;;
65545;SDS011;52177;55.968;37.498;2023-11-21T02:08:40;4.25;;;2.90;;
65545;SDS011;52177;55.968;37.498;2023-11-21T02:09:14;3.88;;;2.88;;
65545;SDS011;52177;55.968;37.498;2023-11-21T02:09:45;3.97;;;2.67;;
65545;SDS011;52177;55.968;37.498;2023-11-21T02:10:16;4.45;;;3.35;;
65545;SDS011;52177;55.968;37.498;2023-11-21T02:10:46;3.72;;;2.78;;
65545;SDS011;52177;55.968;37.498;2023-11-21T02:11:17;2.83;;;2.60;;
65545;SDS011;52177;55.968;37.498;2023-11-21T02:11:49;3.90;;;3.28;;
65545;SDS011;52177;55.968;37.498;2023-11-21T02:12:19;4.13;;;3.17;;
65545;SDS011;52177;55.968;37.498;2023-11-21T02:12:50;5.10;;;2.72;;
65545;SDS011;52177;55.968;37.498;2023-11-21T02:13:20;4.30;;;3.38;;
65545;SDS011;52177;55.968;37.498;2023-11-21T02:13:51;2.92;;;2.67;;
65545;SDS011;52177;55.968;37.498;2023-11-21T02:14:24;3.03;;;2.45;;
65545;SDS011;52177;55.968;37.498;2023-11-21T02:14:56;5.10;;;3.03;;
65545;SDS011;52177;55.968;37.498;2023-11-21T02:15:27;4.00;;;2.83;;
65545;SDS011;52177;55.968;37.498;2023-11-21T02:15:58;4.28;;;3.00;;
65545;SDS011;52177;55.968;37.498;2023-11-21T02:16:29;5.18;;;2.92;;
65545;SDS011;52177;55.968;37.498;2023-11-21T02:17:01;4.57;;;2.92;;
65545;SDS011;52177;55.968;37.498;2023-11-21T02:17:33;4.88;;;2.53;;
65545;SDS011;52177;55.968;37.498;2023-11-21T02:18:04;4.82;;;2.22;;
65545;SDS011;52177;55.968;37.498;2023-11-21T02:18:36;6.50;;;3.17;;
65545;SDS011;52177;55.968;37.498;2023-11-21T02:19:07;3.85;;;2.40;;
65545;SDS011;52177;55.968;37.498;2023-11-21T02:19:39;4.95;;;3.00;;
65545;SDS011;52177;55.968;37.498;2023-11-21T02:20:12;4.25;;;2.85;;
65545;SDS011;52177;55.968;37.498;2023-11-21T02:20:47;3.42;;;2.83;;
65545;SDS011;52177;55.968;37.498;2023-11-21T02:21:18;3.33;;;2.80;;
65545;SDS011;52177;55.968;37.498;2023-11-21T02:21:49;4.47;;;2.92;;
65545;SDS011;52177;55.968;37.498;2023-11-21T02:22:21;3.33;;;2.60;;
65545;SDS011;52177;55.968;37.498;2023-11-21T02:22:56;4.15;;;2.70;;
65545;SDS011;52177;55.968;37.498;2023-11-21T02:23:30;5.93;;;2.80;;
65545;SDS011;52177;55.968;37.498;2023-11-21T02:24:00;3.20;;;2.88;;
65545;SDS011;52177;55.968;37.498;2023-11-21T02:24:31;3.97;;;2.80;;
65545;SDS011;52177;55.968;37.498;2023-11-21T02:25:02;4.15;;;2.90;;
65545;SDS011;52177;55.968;37.498;2023-11-21T02:25:33;3.70;;;3.15;;
65545;SDS011;52177;55.968;37.498;2023-11-21T02:26:04;3.08;;;2.78;;
65545;SDS011;52177;55.968;37.498;2023-11-21T02:26:34;12.15;;;3.20;;
65545;SDS011;52177;55.968;37.498;2023-11-21T02:27:05;5.85;;;3.20;;
65545;SDS011;52177;55.968;37.498;2023-11-21T02:27:36;3.75;;;2.75;;
65545;SDS011;52177;55.968;37.498;2023-11-21T02:28:07;3.40;;;2.90;;
65545;SDS011;52177;55.968;37.498;2023-11-21T02:28:38;4.82;;;2.92;;
65545;SDS011;52177;55.968;37.498;2023-11-21T02:29:08;3.05;;;2.65;;
65545;SDS011;52177;55.968;37.498;2023-11-21T02:29:42;3.55;;;3.00;;
65545;SDS011;52177;55.968;37.498;2023-11-21T02:30:13;2.75;;;2.55;;
65545;SDS011;52177;55.968;37.498;2023-11-21T02:30:44;3.63;;;2.78;;
65545;SDS011;52177;55.968;37.498;2023-11-21T02:31:14;3.25;;;2.50;;
65545;SDS011;52177;55.968;37.498;2023-11-21T02:31:45;7.43;;;3.30;;
65545;SDS011;52177;55.968;37.498;2023-11-21T02:32:17;3.83;;;2.65;;
65545;SDS011;52177;55.968;37.498;2023-11-21T02:32:49;2.97;;;2.40;;
65545;SDS011;52177;55.968;37.498;2023-11-21T02:33:19;3.88;;;2.83;;
65545;SDS011;52177;55.968;37.498;2023-11-21T02:33:50;3.28;;;2.92;;
65545;SDS011;52177;55.968;37.498;2023-11-21T02:34:21;3.95;;;2.83;;
65545;SDS011;52177;55.968;37.498;2023-11-21T02:34:52;4.82;;;2.92;;
65545;SDS011;52177;55.968;37.498;2023-11-21T02:35:26;4.18;;;2.70;;
65545;SDS011;52177;55.968;37.498;2023-11-21T02:35:57;5.95;;;3.03;;
65545;SDS011;52177;55.968;37.498;2023-11-21T02:36:27;3.50;;;3.17;;
65545;SDS011;52177;55.968;37.498;2023-11-21T02:36:57;3.58;;;3.00;;
65545;SDS011;52177;55.968;37.498;2023-11-21T02:37:28;3.00;;;2.75;;
65545;SDS011;52177;55.968;37.498;2023-11-21T02:37:58;4.13;;;2.75;;
65545;SDS011;52177;55.968;37.498;2023-11-21T02:38:29;4.15;;;2.90;;
65545;SDS011;52177;55.968;37.498;2023-11-21T02:39:00;3.50;;;3.05;;
65545;SDS011;52177;55.968;37.498;2023-11-21T02:39:31;3.03;;;2.72;;
65545;SDS011;52177;55.968;37.498;2023-11-21T02:40:01;3.70;;;2.40;;
65545;SDS011;52177;55.968;37.498;2023-11-21T02:40:52;4.20;;;2.45;;
65545;SDS011;52177;55.968;37.498;2023-11-21T02:41:23;4.90;;;3.05;;
65545;SDS011;52177;55.968;37.498;2023-11-21T02:41:54;5.50;;;2.90;;
65545;SDS011;52177;55.968;37.498;2023-11-21T02:42:24;4.13;;;2.90;;
65545;SDS011;52177;55.968;37.498;2023-11-21T02:42:55;4.25;;;3.17;;
65545;SDS011;52177;55.968;37.498;2023-11-21T02:43:25;3.20;;;2.80;;
65545;SDS011;52177;55.968;37.498;2023-11-21T02:43:55;3.40;;;2.95;;
65545;SDS011;52177;55.968;37.498;2023-11-21T02:44:26;5.07;;;2.80;;
65545;SDS011;52177;55.968;37.498;2023-11-21T02:44:56;4.15;;;2.90;;
65545;SDS011;52177;55.968;37.498;2023-11-21T02:45:27;3.95;;;2.97;;
65545;SDS011;52177;55.968;37.498;2023-11-21T02:45:57;3.17;;;2.58;;
65545;SDS011;52177;55.968;37.498;2023-11-21T02:46:28;5.68;;;2.90;;
65545;SDS011;52177;55.968;37.498;2023-11-21T02:46:58;5.65;;;2.80;;
65545;SDS011;52177;55.968;37.498;2023-11-21T02:47:30;5.30;;;2.90;;
65545;SDS011;52177;55.968;37.498;2023-11-21T02:48:00;2.92;;;2.72;;
65545;SDS011;52177;55.968;37.498;2023-11-21T02:48:31;3.70;;;2.60;;
65545;SDS011;52177;55.968;37.498;2023-11-21T02:49:04;3.17;;;2.47;;
65545;SDS011;52177;55.968;37.498;2023-11-21T02:49:36;9.07;;;3.00;;
65545;SDS011;52177;55.968;37.498;2023-11-21T02:50:06;5.18;;;3.30;;
65545;SDS011;52177;55.968;37.498;2023-11-21T02:50:40;5.25;;;3.38;;
65545;SDS011;52177;55.968;37.498;2023-11-21T02:51:11;3.47;;;2.63;;
65545;SDS011;52177;55.968;37.498;2023-11-21T02:51:42;3.47;;;2.95;;
65545;SDS011;52177;55.968;37.498;2023-11-21T02:52:12;4.10;;;3.30;;
65545;SDS011;52177;55.968;37.498;2023-11-21T02:52:42;3.28;;;2.65;;
65545;SDS011;52177;55.968;37.498;2023-11-21T02:53:14;27.92;;;16.40;;
65545;SDS011;52177;55.968;37.498;2023-11-21T02:53:44;29.17;;;17.48;;
65545;SDS011;52177;55.968;37.498;2023-11-21T02:54:16;23.88;;;13.40;;
65545;SDS011;52177;55.968;37.498;2023-11-21T02:54:47;27.13;;;16.13;;
65545;SDS011;52177;55.968;37.498;2023-11-21T02:55:17;12.07;;;8.35;;
65545;SDS011;52177;55.968;37.498;2023-11-21T02:55:48;9.70;;;7.00;;
65545;SDS011;52177;55.968;37.498;2023-11-21T02:56:18;18.52;;;10.70;;
65545;SDS011;52177;55.968;37.498;2023-11-21T02:56:49;11.23;;;7.95;;
65545;SDS011;52177;55.968;37.498;2023-11-21T02:57:19;13.65;;;9.13;;
65545;SDS011;52177;55.968;37.498;2023-11-21T02:57:50;12.90;;;7.82;;
65545;SDS011;52177;55.968;37.498;2023-11-21T02:58:20;10.23;;;7.35;;
65545;SDS011;52177;55.968;37.498;2023-11-21T02:58:51;8.77;;;4.80;;
65545;SDS011;52177;55.968;37.498;2023-11-21T02:59:22;7.35;;;3.53;;
65545;SDS011;52177;55.968;37.498;2023-11-21T02:59:52;11.05;;;6.10;;
65545;SDS011;52177;55.968;37.498;2023-11-21T03:00:22;6.50;;;4.32;;
65545;SDS011;52177;55.968;37.498;2023-11-21T03:00:54;8.85;;;4.93;;
65545;SDS011;52177;55.968;37.498;2023-11-21T03:01:24;9.70;;;6.10;;
65545;SDS011;52177;55.968;37.498;2023-11-21T03:01:55;9.52;;;5.53;;
65545;SDS011;52177;55.968;37.498;2023-11-21T03:02:27;12.75;;;7.20;;
65545;SDS011;52177;55.968;37.498;2023-11-21T03:02:57;14.23;;;9.15;;
65545;SDS011;52177;55.968;37.498;2023-11-21T03:03:28;12.63;;;7.70;;
65545;SDS011;52177;55.968;37.498;2023-11-21T03:03:58;6.03;;;4.35;;
65545;SDS011;52177;55.968;37.498;2023-11-21T03:04:29;6.57;;;4.32;;